sensor_id;sensor_type;location;lat;lon;timestamp;P1;durP1;ratioP1;P2;durP2;ratioP2
42704;SDS011;28342;42.594;23.414;2022-12-18T00:01:36;9.75;;;6.95;;
42704;SDS011;28342;42.594;23.414;2022-12-18T00:04:04;11.73;;;6.95;;
42704;SDS011;28342;42.594;23.414;2022-12-18T00:06:30;9.60;;;7.03;;
42704;SDS011;28342;42.594;23.414;2022-12-18T00:08:58;9.68;;;7.32;;
42704;SDS011;28342;42.594;23.414;2022-12-18T00:11:25;9.00;;;6.63;;
42704;SDS011;28342;42.594;23.414;2022-12-18T00:13:53;9.55;;;6.35;;
42704;SDS011;28342;42.594;23.414;2022-12-18T00:16:23;7.78;;;5.53;;
42704;SDS011;28342;42.594;23.414;2022-12-18T00:18:50;7.25;;;5.80;;
42704;SDS011;28342;42.594;23.414;2022-12-18T00:21:17;7.30;;;5.45;;
42704;SDS011;28342;42.594;23.414;2022-12-18T00:23:43;6.90;;;5.80;;
42704;SDS011;28342;42.594;23.414;2022-12-18T00:26:11;7.78;;;5.18;;
42704;SDS011;28342;42.594;23.414;2022-12-18T00:28:39;6.90;;;4.97;;
42704;SDS011;28342;42.594;23.414;2022-12-18T00:31:06;7.50;;;4.60;;
42704;SDS011;28342;42.594;23.414;2022-12-18T00:33:34;7.43;;;5.00;;
42704;SDS011;28342;42.594;23.414;2022-12-18T00:36:00;6.72;;;4.82;;
42704;SDS011;28342;42.594;23.414;2022-12-18T00:38:34;8.63;;;5.38;;
42704;SDS011;28342;42.594;23.414;2022-12-18T00:41:00;7.22;;;4.82;;
42704;SDS011;28342;42.594;23.414;2022-12-18T00:43:26;6.38;;;4.75;;
42704;SDS011;28342;42.594;23.414;2022-12-18T00:45:51;7.00;;;4.47;;
42704;SDS011;28342;42.594;23.414;2022-12-18T00:48:17;9.32;;;5.13;;
42704;SDS011;28342;42.594;23.414;2022-12-18T00:50:42;7.25;;;5.05;;
42704;SDS011;28342;42.594;23.414;2022-12-18T00:53:07;7.75;;;4.95;;
42704;SDS011;28342;42.594;23.414;2022-12-18T00:55:33;7.05;;;5.35;;
42704;SDS011;28342;42.594;23.414;2022-12-18T00:57:59;8.90;;;5.30;;
42704;SDS011;28342;42.594;23.414;2022-12-18T01:00:24;8.52;;;5.30;;
42704;SDS011;28342;42.594;23.414;2022-12-18T01:02:50;6.85;;;5.10;;
42704;SDS011;28342;42.594;23.414;2022-12-18T01:05:15;10.20;;;5.82;;
42704;SDS011;28342;42.594;23.414;2022-12-18T01:07:41;7.97;;;5.72;;
42704;SDS011;28342;42.594;23.414;2022-12-18T01:10:07;9.07;;;6.03;;
42704;SDS011;28342;42.594;23.414;2022-12-18T01:12:34;8.10;;;6.10;;
42704;SDS011;28342;42.594;23.414;2022-12-18T01:15:00;8.20;;;5.38;;
42704;SDS011;28342;42.594;23.414;2022-12-18T01:17:25;9.05;;;5.82;;
42704;SDS011;28342;42.594;23.414;2022-12-18T01:19:51;8.02;;;6.03;;
42704;SDS011;28342;42.594;23.414;2022-12-18T01:22:16;10.43;;;5.85;;
42704;SDS011;28342;42.594;23.414;2022-12-18T01:24:42;8.43;;;6.22;;
42704;SDS011;28342;42.594;23.414;2022-12-18T01:27:07;8.90;;;6.30;;
42704;SDS011;28342;42.594;23.414;2022-12-18T01:29:32;8.50;;;5.88;;
42704;SDS011;28342;42.594;23.414;2022-12-18T01:31:58;8.50;;;5.70;;
42704;SDS011;28342;42.594;23.414;2022-12-18T01:34:24;9.35;;;6.00;;
42704;SDS011;28342;42.594;23.414;2022-12-18T01:36:49;11.18;;;6.65;;
42704;SDS011;28342;42.594;23.414;2022-12-18T01:39:20;9.70;;;7.13;;
42704;SDS011;28342;42.594;23.414;2022-12-18T01:41:45;8.18;;;6.13;;
42704;SDS011;28342;42.594;23.414;2022-12-18T01:47:47;11.73;;;6.10;;
42704;SDS011;28342;42.594;23.414;2022-12-18T01:52:55;10.05;;;6.43;;
42704;SDS011;28342;42.594;23.414;2022-12-18T01:55:26;9.88;;;5.88;;
42704;SDS011;28342;42.594;23.414;2022-12-18T01:57:57;8.77;;;6.38;;
42704;SDS011;28342;42.594;23.414;2022-12-18T02:00:25;11.40;;;7.53;;
42704;SDS011;28342;42.594;23.414;2022-12-18T02:02:52;12.20;;;6.55;;
42704;SDS011;28342;42.594;23.414;2022-12-18T02:05:27;9.80;;;6.72;;
42704;SDS011;28342;42.594;23.414;2022-12-18T02:13:46;11.77;;;8.05;;
42704;SDS011;28342;42.594;23.414;2022-12-18T02:18:58;10.70;;;7.22;;
42704;SDS011;28342;42.594;23.414;2022-12-18T02:21:35;11.60;;;7.47;;
42704;SDS011;28342;42.594;23.414;2022-12-18T02:24:17;11.25;;;7.65;;
42704;SDS011;28342;42.594;23.414;2022-12-18T02:26:59;13.73;;;8.30;;
42704;SDS011;28342;42.594;23.414;2022-12-18T02:29:33;12.75;;;8.10;;
42704;SDS011;28342;42.594;23.414;2022-12-18T02:32:10;13.50;;;8.93;;
42704;SDS011;28342;42.594;23.414;2022-12-18T02:34:40;12.82;;;8.45;;
42704;SDS011;28342;42.594;23.414;2022-12-18T02:37:08;17.33;;;10.52;;
42704;SDS011;28342;42.594;23.414;2022-12-18T02:39:38;13.43;;;9.52;;
42704;SDS011;28342;42.594;23.414;2022-12-18T02:42:05;13.80;;;8.73;;
42704;SDS011;28342;42.594;23.414;2022-12-18T02:44:33;17.17;;;9.98;;
42704;SDS011;28342;42.594;23.414;2022-12-18T02:47:00;14.10;;;10.30;;
42704;SDS011;28342;42.594;23.414;2022-12-18T02:52:15;14.73;;;9.82;;
42704;SDS011;28342;42.594;23.414;2022-12-18T02:57:54;16.70;;;10.82;;
42704;SDS011;28342;42.594;23.414;2022-12-18T03:00:24;18.58;;;10.68;;
42704;SDS011;28342;42.594;23.414;2022-12-18T03:03:06;13.30;;;9.00;;
42704;SDS011;28342;42.594;23.414;2022-12-18T03:08:10;14.43;;;9.30;;
42704;SDS011;28342;42.594;23.414;2022-12-18T03:11:01;14.25;;;9.18;;
42704;SDS011;28342;42.594;23.414;2022-12-18T03:13:33;16.00;;;9.57;;
42704;SDS011;28342;42.594;23.414;2022-12-18T03:16:02;13.13;;;8.48;;
42704;SDS011;28342;42.594;23.414;2022-12-18T03:18:36;14.23;;;9.30;;
42704;SDS011;28342;42.594;23.414;2022-12-18T03:21:03;14.23;;;8.32;;
42704;SDS011;28342;42.594;23.414;2022-12-18T03:23:40;11.27;;;7.97;;
42704;SDS011;28342;42.594;23.414;2022-12-18T03:26:11;12.25;;;8.20;;
42704;SDS011;28342;42.594;23.414;2022-12-18T03:28:42;13.85;;;8.15;;
42704;SDS011;28342;42.594;23.414;2022-12-18T03:31:12;13.77;;;8.55;;
42704;SDS011;28342;42.594;23.414;2022-12-18T03:33:46;12.43;;;8.52;;
42704;SDS011;28342;42.594;23.414;2022-12-18T03:36:16;12.88;;;8.38;;
42704;SDS011;28342;42.594;23.414;2022-12-18T03:38:42;12.55;;;8.82;;
42704;SDS011;28342;42.594;23.414;2022-12-18T03:44:07;13.60;;;8.80;;
42704;SDS011;28342;42.594;23.414;2022-12-18T03:54:48;13.77;;;7.97;;
42704;SDS011;28342;42.594;23.414;2022-12-18T03:57:16;11.23;;;7.30;;
42704;SDS011;28342;42.594;23.414;2022-12-18T03:59:45;11.32;;;7.43;;
42704;SDS011;28342;42.594;23.414;2022-12-18T04:02:13;13.02;;;8.27;;
42704;SDS011;28342;42.594;23.414;2022-12-18T04:04:41;13.73;;;8.50;;
42704;SDS011;28342;42.594;23.414;2022-12-18T04:07:08;11.85;;;7.80;;
42704;SDS011;28342;42.594;23.414;2022-12-18T04:09:34;12.55;;;7.85;;
42704;SDS011;28342;42.594;23.414;2022-12-18T04:12:03;11.88;;;7.35;;
42704;SDS011;28342;42.594;23.414;2022-12-18T04:14:28;9.48;;;6.57;;
42704;SDS011;28342;42.594;23.414;2022-12-18T04:16:54;12.63;;;6.40;;
42704;SDS011;28342;42.594;23.414;2022-12-18T04:19:19;9.57;;;6.50;;
42704;SDS011;28342;42.594;23.414;2022-12-18T04:21:45;11.35;;;7.63;;
42704;SDS011;28342;42.594;23.414;2022-12-18T04:24:10;10.85;;;6.90;;
42704;SDS011;28342;42.594;23.414;2022-12-18T04:26:36;11.48;;;6.38;;
42704;SDS011;28342;42.594;23.414;2022-12-18T04:29:01;12.45;;;6.78;;
42704;SDS011;28342;42.594;23.414;2022-12-18T04:31:27;11.32;;;6.97;;
42704;SDS011;28342;42.594;23.414;2022-12-18T04:33:53;12.20;;;6.43;;
42704;SDS011;28342;42.594;23.414;2022-12-18T04:36:18;12.02;;;7.07;;
42704;SDS011;28342;42.594;23.414;2022-12-18T04:38:44;11.05;;;6.05;;
42704;SDS011;28342;42.594;23.414;2022-12-18T04:41:09;9.45;;;6.63;;
42704;SDS011;28342;42.594;23.414;2022-12-18T04:43:35;10.75;;;6.90;;
42704;SDS011;28342;42.594;23.414;2022-12-18T04:46:04;10.85;;;6.45;;
42704;SDS011;28342;42.594;23.414;2022-12-18T04:48:30;11.13;;;7.32;;
42704;SDS011;28342;42.594;23.414;2022-12-18T04:50:56;10.25;;;6.53;;
42704;SDS011;28342;42.594;23.414;2022-12-18T04:53:21;12.20;;;6.68;;
42704;SDS011;28342;42.594;23.414;2022-12-18T04:55:47;11.02;;;6.65;;
42704;SDS011;28342;42.594;23.414;2022-12-18T04:58:12;16.85;;;7.57;;
42704;SDS011;28342;42.594;23.414;2022-12-18T05:00:37;12.63;;;7.07;;
42704;SDS011;28342;42.594;23.414;2022-12-18T05:03:03;13.63;;;8.00;;
42704;SDS011;28342;42.594;23.414;2022-12-18T05:05:28;12.27;;;7.72;;
42704;SDS011;28342;42.594;23.414;2022-12-18T05:07:54;13.40;;;7.97;;
42704;SDS011;28342;42.594;23.414;2022-12-18T05:10:19;13.70;;;8.18;;
42704;SDS011;28342;42.594;23.414;2022-12-18T05:12:45;15.85;;;9.50;;
42704;SDS011;28342;42.594;23.414;2022-12-18T05:15:22;16.33;;;7.72;;
42704;SDS011;28342;42.594;23.414;2022-12-18T05:17:48;11.63;;;7.85;;
42704;SDS011;28342;42.594;23.414;2022-12-18T05:20:13;11.98;;;7.53;;
42704;SDS011;28342;42.594;23.414;2022-12-18T05:22:40;12.60;;;8.15;;
42704;SDS011;28342;42.594;23.414;2022-12-18T05:25:05;16.73;;;8.88;;
42704;SDS011;28342;42.594;23.414;2022-12-18T05:27:31;13.80;;;9.07;;
42704;SDS011;28342;42.594;23.414;2022-12-18T05:29:56;17.48;;;8.85;;
42704;SDS011;28342;42.594;23.414;2022-12-18T05:32:21;14.57;;;8.88;;
42704;SDS011;28342;42.594;23.414;2022-12-18T05:34:47;13.32;;;8.23;;
42704;SDS011;28342;42.594;23.414;2022-12-18T05:37:12;17.83;;;8.25;;
42704;SDS011;28342;42.594;23.414;2022-12-18T05:39:38;12.25;;;8.20;;
42704;SDS011;28342;42.594;23.414;2022-12-18T05:42:03;15.75;;;8.15;;
42704;SDS011;28342;42.594;23.414;2022-12-18T05:44:28;15.70;;;9.35;;
42704;SDS011;28342;42.594;23.414;2022-12-18T05:46:54;15.98;;;9.02;;
42704;SDS011;28342;42.594;23.414;2022-12-18T05:49:19;13.18;;;8.20;;
42704;SDS011;28342;42.594;23.414;2022-12-18T05:51:45;15.90;;;9.07;;
42704;SDS011;28342;42.594;23.414;2022-12-18T05:54:10;14.90;;;8.27;;
42704;SDS011;28342;42.594;23.414;2022-12-18T05:56:36;13.60;;;9.07;;
42704;SDS011;28342;42.594;23.414;2022-12-18T05:59:01;14.35;;;8.55;;
42704;SDS011;28342;42.594;23.414;2022-12-18T06:01:27;13.55;;;8.70;;
42704;SDS011;28342;42.594;23.414;2022-12-18T06:03:53;18.60;;;10.02;;
42704;SDS011;28342;42.594;23.414;2022-12-18T06:06:21;16.35;;;9.23;;
42704;SDS011;28342;42.594;23.414;2022-12-18T06:08:48;16.52;;;10.10;;
42704;SDS011;28342;42.594;23.414;2022-12-18T06:11:19;14.45;;;9.82;;
42704;SDS011;28342;42.594;23.414;2022-12-18T06:13:45;19.77;;;10.82;;
42704;SDS011;28342;42.594;23.414;2022-12-18T06:16:11;17.05;;;10.10;;
42704;SDS011;28342;42.594;23.414;2022-12-18T06:18:37;16.67;;;9.98;;
42704;SDS011;28342;42.594;23.414;2022-12-18T06:21:03;16.20;;;10.27;;
42704;SDS011;28342;42.594;23.414;2022-12-18T06:23:29;19.02;;;10.90;;
42704;SDS011;28342;42.594;23.414;2022-12-18T06:25:54;20.27;;;11.13;;
42704;SDS011;28342;42.594;23.414;2022-12-18T06:28:20;19.02;;;10.63;;
42704;SDS011;28342;42.594;23.414;2022-12-18T06:30:46;18.65;;;9.77;;
42704;SDS011;28342;42.594;23.414;2022-12-18T06:33:13;17.33;;;10.75;;
42704;SDS011;28342;42.594;23.414;2022-12-18T06:35:39;17.73;;;10.48;;
42704;SDS011;28342;42.594;23.414;2022-12-18T06:38:05;17.10;;;11.00;;
42704;SDS011;28342;42.594;23.414;2022-12-18T06:40:30;16.13;;;10.30;;
42704;SDS011;28342;42.594;23.414;2022-12-18T06:42:56;20.50;;;11.88;;
42704;SDS011;28342;42.594;23.414;2022-12-18T06:45:21;22.75;;;11.02;;
42704;SDS011;28342;42.594;23.414;2022-12-18T06:47:46;17.50;;;10.45;;
42704;SDS011;28342;42.594;23.414;2022-12-18T06:50:12;25.90;;;14.35;;
42704;SDS011;28342;42.594;23.414;2022-12-18T06:52:38;25.00;;;14.52;;
42704;SDS011;28342;42.594;23.414;2022-12-18T06:55:05;19.77;;;11.35;;
42704;SDS011;28342;42.594;23.414;2022-12-18T06:57:33;24.25;;;13.27;;
42704;SDS011;28342;42.594;23.414;2022-12-18T06:59:58;28.42;;;14.38;;
42704;SDS011;28342;42.594;23.414;2022-12-18T07:02:23;27.02;;;14.70;;
42704;SDS011;28342;42.594;23.414;2022-12-18T07:04:49;24.15;;;13.73;;
42704;SDS011;28342;42.594;23.414;2022-12-18T07:07:14;23.33;;;12.77;;
42704;SDS011;28342;42.594;23.414;2022-12-18T07:09:40;23.85;;;13.27;;
42704;SDS011;28342;42.594;23.414;2022-12-18T07:12:05;19.88;;;12.55;;
42704;SDS011;28342;42.594;23.414;2022-12-18T07:14:31;21.70;;;11.38;;
42704;SDS011;28342;42.594;23.414;2022-12-18T07:16:57;20.65;;;11.77;;
42704;SDS011;28342;42.594;23.414;2022-12-18T07:19:22;17.75;;;10.50;;
42704;SDS011;28342;42.594;23.414;2022-12-18T07:21:49;17.52;;;10.13;;
42704;SDS011;28342;42.594;23.414;2022-12-18T07:24:15;17.55;;;9.70;;
42704;SDS011;28342;42.594;23.414;2022-12-18T07:26:40;20.70;;;10.40;;
42704;SDS011;28342;42.594;23.414;2022-12-18T07:29:06;19.05;;;10.13;;
42704;SDS011;28342;42.594;23.414;2022-12-18T07:31:31;13.98;;;9.15;;
42704;SDS011;28342;42.594;23.414;2022-12-18T07:33:57;16.92;;;9.98;;
42704;SDS011;28342;42.594;23.414;2022-12-18T07:36:22;17.98;;;10.90;;
42704;SDS011;28342;42.594;23.414;2022-12-18T07:38:48;19.10;;;10.88;;
42704;SDS011;28342;42.594;23.414;2022-12-18T07:41:14;18.75;;;11.25;;
42704;SDS011;28342;42.594;23.414;2022-12-18T07:43:40;17.45;;;10.18;;
42704;SDS011;28342;42.594;23.414;2022-12-18T07:46:06;17.33;;;10.15;;
42704;SDS011;28342;42.594;23.414;2022-12-18T07:48:33;22.00;;;11.52;;
42704;SDS011;28342;42.594;23.414;2022-12-18T07:50:59;21.75;;;11.38;;
42704;SDS011;28342;42.594;23.414;2022-12-18T07:53:25;17.52;;;11.15;;
42704;SDS011;28342;42.594;23.414;2022-12-18T07:55:55;20.40;;;11.18;;
42704;SDS011;28342;42.594;23.414;2022-12-18T07:58:24;25.30;;;11.40;;
42704;SDS011;28342;42.594;23.414;2022-12-18T08:00:50;24.10;;;12.77;;
42704;SDS011;28342;42.594;23.414;2022-12-18T08:03:17;19.90;;;11.30;;
42704;SDS011;28342;42.594;23.414;2022-12-18T08:05:43;18.48;;;10.45;;
42704;SDS011;28342;42.594;23.414;2022-12-18T08:08:08;20.85;;;11.52;;
42704;SDS011;28342;42.594;23.414;2022-12-18T08:10:33;20.33;;;11.45;;
42704;SDS011;28342;42.594;23.414;2022-12-18T08:12:59;21.63;;;12.35;;
42704;SDS011;28342;42.594;23.414;2022-12-18T08:15:24;18.60;;;11.38;;
42704;SDS011;28342;42.594;23.414;2022-12-18T08:17:50;26.02;;;11.77;;
42704;SDS011;28342;42.594;23.414;2022-12-18T08:20:15;23.83;;;12.63;;
42704;SDS011;28342;42.594;23.414;2022-12-18T08:22:42;19.10;;;10.65;;
42704;SDS011;28342;42.594;23.414;2022-12-18T08:25:07;24.02;;;13.68;;
42704;SDS011;28342;42.594;23.414;2022-12-18T08:27:33;22.63;;;12.90;;
42704;SDS011;28342;42.594;23.414;2022-12-18T08:29:59;22.05;;;12.68;;
42704;SDS011;28342;42.594;23.414;2022-12-18T08:32:25;25.52;;;13.85;;
42704;SDS011;28342;42.594;23.414;2022-12-18T08:34:51;27.70;;;14.30;;
42704;SDS011;28342;42.594;23.414;2022-12-18T08:37:17;28.33;;;13.80;;
42704;SDS011;28342;42.594;23.414;2022-12-18T08:39:42;39.17;;;19.27;;
42704;SDS011;28342;42.594;23.414;2022-12-18T08:42:08;30.13;;;15.82;;
42704;SDS011;28342;42.594;23.414;2022-12-18T08:44:51;21.90;;;12.82;;
42704;SDS011;28342;42.594;23.414;2022-12-18T08:47:17;24.40;;;13.18;;
42704;SDS011;28342;42.594;23.414;2022-12-18T08:49:42;23.20;;;12.95;;
42704;SDS011;28342;42.594;23.414;2022-12-18T08:52:08;22.25;;;13.98;;
42704;SDS011;28342;42.594;23.414;2022-12-18T08:54:34;26.50;;;14.75;;
42704;SDS011;28342;42.594;23.414;2022-12-18T08:56:59;24.45;;;14.30;;
42704;SDS011;28342;42.594;23.414;2022-12-18T08:59:25;22.75;;;13.32;;
42704;SDS011;28342;42.594;23.414;2022-12-18T09:01:52;23.77;;;13.68;;
42704;SDS011;28342;42.594;23.414;2022-12-18T09:04:18;24.67;;;14.57;;
42704;SDS011;28342;42.594;23.414;2022-12-18T09:06:44;31.65;;;15.07;;
42704;SDS011;28342;42.594;23.414;2022-12-18T09:09:09;26.40;;;15.15;;
42704;SDS011;28342;42.594;23.414;2022-12-18T09:11:35;25.95;;;14.98;;
42704;SDS011;28342;42.594;23.414;2022-12-18T09:14:00;27.48;;;14.90;;
42704;SDS011;28342;42.594;23.414;2022-12-18T09:16:27;30.52;;;17.33;;
42704;SDS011;28342;42.594;23.414;2022-12-18T09:18:54;28.92;;;17.10;;
42704;SDS011;28342;42.594;23.414;2022-12-18T09:21:24;27.92;;;14.50;;
42704;SDS011;28342;42.594;23.414;2022-12-18T09:23:51;27.13;;;14.35;;
42704;SDS011;28342;42.594;23.414;2022-12-18T09:26:18;27.05;;;14.38;;
42704;SDS011;28342;42.594;23.414;2022-12-18T09:28:44;23.88;;;13.82;;
42704;SDS011;28342;42.594;23.414;2022-12-18T09:31:10;28.58;;;15.32;;
42704;SDS011;28342;42.594;23.414;2022-12-18T09:33:37;27.50;;;15.77;;
42704;SDS011;28342;42.594;23.414;2022-12-18T09:36:03;27.25;;;15.07;;
42704;SDS011;28342;42.594;23.414;2022-12-18T09:38:31;25.70;;;14.25;;
42704;SDS011;28342;42.594;23.414;2022-12-18T09:40:58;25.25;;;14.20;;
42704;SDS011;28342;42.594;23.414;2022-12-18T09:43:41;30.73;;;15.25;;
42704;SDS011;28342;42.594;23.414;2022-12-18T09:46:16;34.17;;;17.40;;
42704;SDS011;28342;42.594;23.414;2022-12-18T09:48:47;34.95;;;17.45;;
42704;SDS011;28342;42.594;23.414;2022-12-18T09:53:50;30.20;;;16.90;;
42704;SDS011;28342;42.594;23.414;2022-12-18T09:56:28;30.55;;;16.27;;
42704;SDS011;28342;42.594;23.414;2022-12-18T09:58:58;29.13;;;16.60;;
42704;SDS011;28342;42.594;23.414;2022-12-18T10:01:26;41.22;;;21.27;;
42704;SDS011;28342;42.594;23.414;2022-12-18T10:03:54;41.65;;;22.67;;
42704;SDS011;28342;42.594;23.414;2022-12-18T10:09:04;38.75;;;20.98;;
42704;SDS011;28342;42.594;23.414;2022-12-18T10:14:39;33.17;;;18.08;;
42704;SDS011;28342;42.594;23.414;2022-12-18T10:20:17;37.40;;;20.65;;
42704;SDS011;28342;42.594;23.414;2022-12-18T10:25:32;33.13;;;18.40;;
42704;SDS011;28342;42.594;23.414;2022-12-18T10:28:09;35.05;;;19.70;;
42704;SDS011;28342;42.594;23.414;2022-12-18T10:30:38;30.33;;;17.73;;
42704;SDS011;28342;42.594;23.414;2022-12-18T10:33:05;31.80;;;16.60;;
42704;SDS011;28342;42.594;23.414;2022-12-18T10:35:31;31.33;;;16.98;;
42704;SDS011;28342;42.594;23.414;2022-12-18T10:38:01;27.10;;;15.27;;
42704;SDS011;28342;42.594;23.414;2022-12-18T10:40:29;27.67;;;15.20;;
42704;SDS011;28342;42.594;23.414;2022-12-18T10:43:11;29.75;;;15.52;;
42704;SDS011;28342;42.594;23.414;2022-12-18T10:45:38;39.20;;;19.73;;
42704;SDS011;28342;42.594;23.414;2022-12-18T10:48:04;30.63;;;15.88;;
42704;SDS011;28342;42.594;23.414;2022-12-18T10:50:45;28.40;;;15.77;;
42704;SDS011;28342;42.594;23.414;2022-12-18T10:53:14;28.73;;;15.40;;
42704;SDS011;28342;42.594;23.414;2022-12-18T10:55:45;34.90;;;17.63;;
42704;SDS011;28342;42.594;23.414;2022-12-18T11:01:08;32.80;;;19.23;;
42704;SDS011;28342;42.594;23.414;2022-12-18T11:04:08;50.72;;;27.20;;
42704;SDS011;28342;42.594;23.414;2022-12-18T11:06:33;38.95;;;21.20;;
42704;SDS011;28342;42.594;23.414;2022-12-18T11:11:51;35.42;;;19.50;;
42704;SDS011;28342;42.594;23.414;2022-12-18T11:14:29;30.90;;;16.60;;
42704;SDS011;28342;42.594;23.414;2022-12-18T11:16:57;35.47;;;17.60;;
42704;SDS011;28342;42.594;23.414;2022-12-18T11:19:37;34.67;;;16.85;;
42704;SDS011;28342;42.594;23.414;2022-12-18T11:22:24;26.52;;;14.60;;
42704;SDS011;28342;42.594;23.414;2022-12-18T11:27:24;30.23;;;16.13;;
42704;SDS011;28342;42.594;23.414;2022-12-18T11:29:50;30.27;;;16.00;;
42704;SDS011;28342;42.594;23.414;2022-12-18T11:35:49;38.25;;;18.38;;
42704;SDS011;28342;42.594;23.414;2022-12-18T11:38:43;32.28;;;16.88;;
42704;SDS011;28342;42.594;23.414;2022-12-18T11:43:52;29.95;;;14.90;;
42704;SDS011;28342;42.594;23.414;2022-12-18T11:46:34;54.60;;;26.60;;
42704;SDS011;28342;42.594;23.414;2022-12-18T11:52:04;40.57;;;20.40;;
42704;SDS011;28342;42.594;23.414;2022-12-18T11:54:43;36.83;;;17.80;;
42704;SDS011;28342;42.594;23.414;2022-12-18T12:11:42;28.63;;;15.43;;
42704;SDS011;28342;42.594;23.414;2022-12-18T12:19:42;37.00;;;17.55;;
42704;SDS011;28342;42.594;23.414;2022-12-18T12:23:12;29.65;;;14.15;;
42704;SDS011;28342;42.594;23.414;2022-12-18T12:25:44;26.35;;;13.98;;
42704;SDS011;28342;42.594;23.414;2022-12-18T12:31:16;37.95;;;18.50;;
42704;SDS011;28342;42.594;23.414;2022-12-18T12:34:03;30.25;;;17.45;;
42704;SDS011;28342;42.594;23.414;2022-12-18T12:36:51;37.42;;;20.05;;
42704;SDS011;28342;42.594;23.414;2022-12-18T12:39:38;40.50;;;19.83;;
42704;SDS011;28342;42.594;23.414;2022-12-18T12:42:22;24.52;;;13.50;;
42704;SDS011;28342;42.594;23.414;2022-12-18T12:45:49;23.67;;;13.07;;
42704;SDS011;28342;42.594;23.414;2022-12-18T12:48:31;27.25;;;13.77;;
42704;SDS011;28342;42.594;23.414;2022-12-18T12:51:22;31.50;;;15.80;;
42704;SDS011;28342;42.594;23.414;2022-12-18T12:53:58;28.17;;;14.82;;
42704;SDS011;28342;42.594;23.414;2022-12-18T12:56:30;29.63;;;16.40;;
42704;SDS011;28342;42.594;23.414;2022-12-18T12:59:44;39.17;;;20.23;;
42704;SDS011;28342;42.594;23.414;2022-12-18T13:04:47;27.17;;;14.82;;
42704;SDS011;28342;42.594;23.414;2022-12-18T13:12:50;40.70;;;19.92;;
42704;SDS011;28342;42.594;23.414;2022-12-18T13:36:41;39.95;;;20.75;;
42704;SDS011;28342;42.594;23.414;2022-12-18T13:39:52;50.25;;;22.98;;
42704;SDS011;28342;42.594;23.414;2022-12-18T13:44:40;64.90;;;30.17;;
42704;SDS011;28342;42.594;23.414;2022-12-18T13:47:24;54.78;;;25.48;;
42704;SDS011;28342;42.594;23.414;2022-12-18T13:49:53;54.08;;;27.20;;
42704;SDS011;28342;42.594;23.414;2022-12-18T13:52:24;60.63;;;28.13;;
42704;SDS011;28342;42.594;23.414;2022-12-18T13:54:53;44.83;;;22.05;;
42704;SDS011;28342;42.594;23.414;2022-12-18T13:59:53;34.78;;;17.92;;
42704;SDS011;28342;42.594;23.414;2022-12-18T14:02:22;32.75;;;19.02;;
42704;SDS011;28342;42.594;23.414;2022-12-18T14:04:49;36.83;;;20.42;;
42704;SDS011;28342;42.594;23.414;2022-12-18T14:07:25;54.38;;;27.25;;
42704;SDS011;28342;42.594;23.414;2022-12-18T14:09:57;44.80;;;23.52;;
42704;SDS011;28342;42.594;23.414;2022-12-18T14:12:25;47.13;;;26.45;;
42704;SDS011;28342;42.594;23.414;2022-12-18T14:15:32;37.13;;;20.05;;
42704;SDS011;28342;42.594;23.414;2022-12-18T14:18:20;31.33;;;17.75;;
42704;SDS011;28342;42.594;23.414;2022-12-18T14:20:47;55.38;;;27.88;;
42704;SDS011;28342;42.594;23.414;2022-12-18T14:23:59;49.55;;;25.92;;
42704;SDS011;28342;42.594;23.414;2022-12-18T14:26:26;39.58;;;20.95;;
42704;SDS011;28342;42.594;23.414;2022-12-18T14:28:57;61.95;;;30.27;;
42704;SDS011;28342;42.594;23.414;2022-12-18T14:31:26;47.47;;;24.58;;
42704;SDS011;28342;42.594;23.414;2022-12-18T14:33:53;37.38;;;19.75;;
42704;SDS011;28342;42.594;23.414;2022-12-18T14:36:25;51.53;;;25.00;;
42704;SDS011;28342;42.594;23.414;2022-12-18T14:38:53;51.38;;;24.90;;
42704;SDS011;28342;42.594;23.414;2022-12-18T14:41:20;47.72;;;23.60;;
42704;SDS011;28342;42.594;23.414;2022-12-18T14:43:47;49.67;;;22.63;;
42704;SDS011;28342;42.594;23.414;2022-12-18T14:49:30;81.13;;;37.72;;
42704;SDS011;28342;42.594;23.414;2022-12-18T14:52:01;60.28;;;29.98;;
42704;SDS011;28342;42.594;23.414;2022-12-18T14:54:29;59.03;;;30.15;;
42704;SDS011;28342;42.594;23.414;2022-12-18T14:57:03;41.35;;;21.98;;
42704;SDS011;28342;42.594;23.414;2022-12-18T14:59:31;36.92;;;20.23;;
42704;SDS011;28342;42.594;23.414;2022-12-18T15:04:30;45.22;;;23.63;;
42704;SDS011;28342;42.594;23.414;2022-12-18T15:09:28;30.60;;;17.30;;
42704;SDS011;28342;42.594;23.414;2022-12-18T15:11:57;47.25;;;22.80;;
42704;SDS011;28342;42.594;23.414;2022-12-18T15:14:30;34.30;;;20.42;;
42704;SDS011;28342;42.594;23.414;2022-12-18T15:17:03;31.30;;;16.83;;
42704;SDS011;28342;42.594;23.414;2022-12-18T15:19:44;33.63;;;15.23;;
42704;SDS011;28342;42.594;23.414;2022-12-18T15:22:17;29.73;;;15.43;;
42704;SDS011;28342;42.594;23.414;2022-12-18T15:24:45;28.30;;;15.68;;
42704;SDS011;28342;42.594;23.414;2022-12-18T15:32:39;33.45;;;17.63;;
42704;SDS011;28342;42.594;23.414;2022-12-18T15:37:39;28.08;;;14.35;;
42704;SDS011;28342;42.594;23.414;2022-12-18T15:40:05;29.38;;;15.00;;
42704;SDS011;28342;42.594;23.414;2022-12-18T15:42:32;28.17;;;14.18;;
42704;SDS011;28342;42.594;23.414;2022-12-18T15:45:17;39.35;;;20.63;;
42704;SDS011;28342;42.594;23.414;2022-12-18T15:47:43;35.08;;;19.23;;
42704;SDS011;28342;42.594;23.414;2022-12-18T15:50:08;38.53;;;21.80;;
42704;SDS011;28342;42.594;23.414;2022-12-18T15:52:44;36.67;;;22.50;;
42704;SDS011;28342;42.594;23.414;2022-12-18T15:55:16;39.47;;;20.25;;
42704;SDS011;28342;42.594;23.414;2022-12-18T16:00:33;33.83;;;16.60;;
42704;SDS011;28342;42.594;23.414;2022-12-18T16:03:01;34.33;;;18.30;;
42704;SDS011;28342;42.594;23.414;2022-12-18T16:05:27;44.40;;;20.92;;
42704;SDS011;28342;42.594;23.414;2022-12-18T16:07:53;38.92;;;17.88;;
42704;SDS011;28342;42.594;23.414;2022-12-18T16:10:19;30.90;;;14.98;;
42704;SDS011;28342;42.594;23.414;2022-12-18T16:12:44;24.80;;;14.40;;
42704;SDS011;28342;42.594;23.414;2022-12-18T16:15:12;29.52;;;13.35;;
42704;SDS011;28342;42.594;23.414;2022-12-18T16:17:39;26.83;;;13.73;;
42704;SDS011;28342;42.594;23.414;2022-12-18T16:20:06;30.58;;;16.23;;
42704;SDS011;28342;42.594;23.414;2022-12-18T16:22:37;31.83;;;15.70;;
42704;SDS011;28342;42.594;23.414;2022-12-18T16:25:03;28.08;;;14.38;;
42704;SDS011;28342;42.594;23.414;2022-12-18T16:27:30;33.58;;;16.10;;
42704;SDS011;28342;42.594;23.414;2022-12-18T16:29:55;32.97;;;16.33;;
42704;SDS011;28342;42.594;23.414;2022-12-18T16:32:21;33.65;;;16.77;;
42704;SDS011;28342;42.594;23.414;2022-12-18T16:34:47;32.85;;;17.08;;
42704;SDS011;28342;42.594;23.414;2022-12-18T16:37:13;25.80;;;14.45;;
42704;SDS011;28342;42.594;23.414;2022-12-18T16:39:40;23.17;;;12.68;;
42704;SDS011;28342;42.594;23.414;2022-12-18T16:42:16;28.17;;;14.15;;
42704;SDS011;28342;42.594;23.414;2022-12-18T16:44:44;29.30;;;14.98;;
42704;SDS011;28342;42.594;23.414;2022-12-18T16:47:11;31.38;;;15.73;;
42704;SDS011;28342;42.594;23.414;2022-12-18T16:49:37;24.58;;;13.80;;
42704;SDS011;28342;42.594;23.414;2022-12-18T16:52:06;28.30;;;13.13;;